sensor_id;sensor_type;location;lat;lon;timestamp;P1;durP1;ratioP1;P2;durP2;ratioP2
26042;SDS011;13818;52.156;5.382;2022-12-31T00:00:33;2.63;;;0.90;;
26042;SDS011;13818;52.156;5.382;2022-12-31T00:03:02;1.92;;;0.80;;
26042;SDS011;13818;52.156;5.382;2022-12-31T00:05:29;4.07;;;1.15;;
26042;SDS011;13818;52.156;5.382;2022-12-31T00:07:55;3.92;;;0.93;;
26042;SDS011;13818;52.156;5.382;2022-12-31T00:10:22;2.80;;;1.10;;
26042;SDS011;13818;52.156;5.382;2022-12-31T00:12:50;4.28;;;0.80;;
26042;SDS011;13818;52.156;5.382;2022-12-31T00:15:16;3.10;;;0.95;;
26042;SDS011;13818;52.156;5.382;2022-12-31T00:17:43;4.28;;;1.98;;
26042;SDS011;13818;52.156;5.382;2022-12-31T00:20:09;2.58;;;1.20;;
26042;SDS011;13818;52.156;5.382;2022-12-31T00:22:36;4.78;;;2.65;;
26042;SDS011;13818;52.156;5.382;2022-12-31T00:25:03;6.45;;;2.65;;
26042;SDS011;13818;52.156;5.382;2022-12-31T00:27:30;4.22;;;1.85;;
26042;SDS011;13818;52.156;5.382;2022-12-31T00:29:58;3.13;;;1.70;;
26042;SDS011;13818;52.156;5.382;2022-12-31T00:32:24;4.25;;;1.40;;
26042;SDS011;13818;52.156;5.382;2022-12-31T00:34:51;4.55;;;1.60;;
26042;SDS011;13818;52.156;5.382;2022-12-31T00:37:17;3.28;;;1.40;;
26042;SDS011;13818;52.156;5.382;2022-12-31T00:39:44;3.45;;;1.67;;
26042;SDS011;13818;52.156;5.382;2022-12-31T00:42:10;2.40;;;1.45;;
26042;SDS011;13818;52.156;5.382;2022-12-31T00:44:36;4.70;;;1.98;;
26042;SDS011;13818;52.156;5.382;2022-12-31T00:47:04;4.18;;;1.80;;
26042;SDS011;13818;52.156;5.382;2022-12-31T00:49:31;3.10;;;1.77;;
26042;SDS011;13818;52.156;5.382;2022-12-31T00:51:57;3.90;;;2.03;;
26042;SDS011;13818;52.156;5.382;2022-12-31T00:54:23;2.65;;;1.90;;
26042;SDS011;13818;52.156;5.382;2022-12-31T00:56:50;4.18;;;1.48;;
26042;SDS011;13818;52.156;5.382;2022-12-31T00:59:16;2.67;;;1.60;;
26042;SDS011;13818;52.156;5.382;2022-12-31T01:01:43;3.33;;;1.83;;
26042;SDS011;13818;52.156;5.382;2022-12-31T01:04:11;4.82;;;2.08;;
26042;SDS011;13818;52.156;5.382;2022-12-31T01:06:39;2.58;;;1.45;;
26042;SDS011;13818;52.156;5.382;2022-12-31T01:09:07;6.03;;;1.90;;
26042;SDS011;13818;52.156;5.382;2022-12-31T01:11:34;3.78;;;1.42;;
26042;SDS011;13818;52.156;5.382;2022-12-31T01:14:02;4.43;;;1.52;;
26042;SDS011;13818;52.156;5.382;2022-12-31T01:16:30;2.53;;;1.10;;
26042;SDS011;13818;52.156;5.382;2022-12-31T01:18:58;2.97;;;1.10;;
26042;SDS011;13818;52.156;5.382;2022-12-31T01:21:28;4.22;;;1.23;;
26042;SDS011;13818;52.156;5.382;2022-12-31T01:23:55;2.05;;;1.33;;
26042;SDS011;13818;52.156;5.382;2022-12-31T01:26:22;3.10;;;1.27;;
26042;SDS011;13818;52.156;5.382;2022-12-31T01:28:49;2.60;;;1.17;;
26042;SDS011;13818;52.156;5.382;2022-12-31T01:31:17;3.03;;;1.02;;
26042;SDS011;13818;52.156;5.382;2022-12-31T01:33:44;3.97;;;1.08;;
26042;SDS011;13818;52.156;5.382;2022-12-31T01:36:12;1.95;;;1.00;;
26042;SDS011;13818;52.156;5.382;2022-12-31T01:38:41;7.20;;;1.15;;
26042;SDS011;13818;52.156;5.382;2022-12-31T01:41:09;3.42;;;1.08;;
26042;SDS011;13818;52.156;5.382;2022-12-31T01:43:44;7.30;;;1.40;;
26042;SDS011;13818;52.156;5.382;2022-12-31T01:46:15;3.08;;;1.20;;
26042;SDS011;13818;52.156;5.382;2022-12-31T01:48:46;2.53;;;0.80;;
26042;SDS011;13818;52.156;5.382;2022-12-31T01:51:16;4.22;;;0.70;;
26042;SDS011;13818;52.156;5.382;2022-12-31T01:53:44;4.07;;;0.73;;
26042;SDS011;13818;52.156;5.382;2022-12-31T01:56:11;6.05;;;1.20;;
26042;SDS011;13818;52.156;5.382;2022-12-31T01:58:39;2.63;;;0.70;;
26042;SDS011;13818;52.156;5.382;2022-12-31T02:01:08;5.13;;;0.88;;
26042;SDS011;13818;52.156;5.382;2022-12-31T02:03:40;3.75;;;0.60;;
26042;SDS011;13818;52.156;5.382;2022-12-31T02:06:07;4.95;;;1.30;;
26042;SDS011;13818;52.156;5.382;2022-12-31T02:08:41;5.93;;;0.90;;
26042;SDS011;13818;52.156;5.382;2022-12-31T02:11:21;2.80;;;0.80;;
26042;SDS011;13818;52.156;5.382;2022-12-31T02:13:50;4.50;;;0.80;;
26042;SDS011;13818;52.156;5.382;2022-12-31T02:16:20;7.10;;;1.17;;
26042;SDS011;13818;52.156;5.382;2022-12-31T02:18:55;5.28;;;1.25;;
26042;SDS011;13818;52.156;5.382;2022-12-31T02:21:47;3.38;;;0.98;;
26042;SDS011;13818;52.156;5.382;2022-12-31T02:24:37;7.68;;;1.85;;
26042;SDS011;13818;52.156;5.382;2022-12-31T02:27:36;3.03;;;1.10;;
26042;SDS011;13818;52.156;5.382;2022-12-31T02:30:13;3.78;;;1.25;;
26042;SDS011;13818;52.156;5.382;2022-12-31T02:35:36;6.25;;;1.45;;
26042;SDS011;13818;52.156;5.382;2022-12-31T02:38:09;4.03;;;1.35;;
26042;SDS011;13818;52.156;5.382;2022-12-31T02:40:39;6.32;;;1.38;;
26042;SDS011;13818;52.156;5.382;2022-12-31T02:43:06;1.63;;;1.00;;
26042;SDS011;13818;52.156;5.382;2022-12-31T02:45:35;4.28;;;1.63;;
26042;SDS011;13818;52.156;5.382;2022-12-31T02:48:11;4.70;;;1.25;;
26042;SDS011;13818;52.156;5.382;2022-12-31T02:50:51;5.80;;;1.23;;
26042;SDS011;13818;52.156;5.382;2022-12-31T02:53:37;2.08;;;1.20;;
26042;SDS011;13818;52.156;5.382;2022-12-31T02:56:18;1.95;;;1.10;;
26042;SDS011;13818;52.156;5.382;2022-12-31T02:58:56;3.83;;;1.10;;
26042;SDS011;13818;52.156;5.382;2022-12-31T03:01:47;6.35;;;1.40;;
26042;SDS011;13818;52.156;5.382;2022-12-31T03:04:36;6.00;;;0.85;;
26042;SDS011;13818;52.156;5.382;2022-12-31T03:07:03;8.15;;;3.60;;
26042;SDS011;13818;52.156;5.382;2022-12-31T03:11:59;3.45;;;1.48;;
26042;SDS011;13818;52.156;5.382;2022-12-31T03:14:44;6.10;;;1.60;;
26042;SDS011;13818;52.156;5.382;2022-12-31T03:17:12;4.78;;;0.75;;
26042;SDS011;13818;52.156;5.382;2022-12-31T03:19:38;2.75;;;0.75;;
26042;SDS011;13818;52.156;5.382;2022-12-31T03:22:22;3.17;;;0.52;;
26042;SDS011;13818;52.156;5.382;2022-12-31T03:24:55;2.92;;;0.70;;
26042;SDS011;13818;52.156;5.382;2022-12-31T03:27:42;4.13;;;0.98;;
26042;SDS011;13818;52.156;5.382;2022-12-31T03:30:09;2.10;;;1.00;;
26042;SDS011;13818;52.156;5.382;2022-12-31T03:32:38;4.43;;;0.63;;
26042;SDS011;13818;52.156;5.382;2022-12-31T03:35:05;7.18;;;0.77;;
26042;SDS011;13818;52.156;5.382;2022-12-31T03:37:33;4.40;;;0.82;;
26042;SDS011;13818;52.156;5.382;2022-12-31T03:40:00;3.72;;;0.88;;
26042;SDS011;13818;52.156;5.382;2022-12-31T03:42:26;2.63;;;0.65;;
26042;SDS011;13818;52.156;5.382;2022-12-31T03:44:52;2.50;;;0.90;;
26042;SDS011;13818;52.156;5.382;2022-12-31T03:47:19;1.15;;;0.70;;
26042;SDS011;13818;52.156;5.382;2022-12-31T03:49:47;2.03;;;0.70;;
26042;SDS011;13818;52.156;5.382;2022-12-31T03:52:13;2.97;;;1.30;;
26042;SDS011;13818;52.156;5.382;2022-12-31T03:54:40;2.15;;;0.75;;
26042;SDS011;13818;52.156;5.382;2022-12-31T03:57:06;3.95;;;0.80;;
26042;SDS011;13818;52.156;5.382;2022-12-31T03:59:33;4.03;;;0.63;;
26042;SDS011;13818;52.156;5.382;2022-12-31T04:01:59;3.33;;;0.90;;
26042;SDS011;13818;52.156;5.382;2022-12-31T04:04:25;3.35;;;0.80;;
26042;SDS011;13818;52.156;5.382;2022-12-31T04:06:53;5.40;;;0.93;;
26042;SDS011;13818;52.156;5.382;2022-12-31T04:09:20;2.00;;;0.45;;
26042;SDS011;13818;52.156;5.382;2022-12-31T04:11:46;2.63;;;0.70;;
26042;SDS011;13818;52.156;5.382;2022-12-31T04:14:13;3.05;;;0.85;;
26042;SDS011;13818;52.156;5.382;2022-12-31T04:16:41;2.20;;;0.55;;
26042;SDS011;13818;52.156;5.382;2022-12-31T04:19:07;7.10;;;0.90;;
26042;SDS011;13818;52.156;5.382;2022-12-31T04:21:34;1.60;;;0.55;;
26042;SDS011;13818;52.156;5.382;2022-12-31T04:24:02;2.38;;;0.55;;
26042;SDS011;13818;52.156;5.382;2022-12-31T04:26:28;1.40;;;0.60;;
26042;SDS011;13818;52.156;5.382;2022-12-31T04:28:55;2.28;;;0.60;;
26042;SDS011;13818;52.156;5.382;2022-12-31T04:31:22;2.83;;;0.40;;
26042;SDS011;13818;52.156;5.382;2022-12-31T04:33:48;2.08;;;0.50;;
26042;SDS011;13818;52.156;5.382;2022-12-31T04:36:15;2.15;;;0.70;;
26042;SDS011;13818;52.156;5.382;2022-12-31T04:38:41;2.70;;;0.80;;
26042;SDS011;13818;52.156;5.382;2022-12-31T04:41:09;3.75;;;0.65;;
26042;SDS011;13818;52.156;5.382;2022-12-31T04:43:46;2.35;;;0.70;;
26042;SDS011;13818;52.156;5.382;2022-12-31T04:46:14;2.58;;;0.70;;
26042;SDS011;13818;52.156;5.382;2022-12-31T04:48:42;3.00;;;0.90;;
26042;SDS011;13818;52.156;5.382;2022-12-31T04:51:08;3.05;;;0.80;;
26042;SDS011;13818;52.156;5.382;2022-12-31T04:53:35;2.58;;;0.80;;
26042;SDS011;13818;52.156;5.382;2022-12-31T04:56:02;2.08;;;0.65;;
26042;SDS011;13818;52.156;5.382;2022-12-31T04:58:31;2.63;;;1.27;;
26042;SDS011;13818;52.156;5.382;2022-12-31T05:00:58;1.88;;;1.20;;
26042;SDS011;13818;52.156;5.382;2022-12-31T05:03:25;1.67;;;0.93;;
26042;SDS011;13818;52.156;5.382;2022-12-31T05:05:52;2.55;;;1.20;;
26042;SDS011;13818;52.156;5.382;2022-12-31T05:08:19;1.88;;;0.90;;
26042;SDS011;13818;52.156;5.382;2022-12-31T05:10:46;2.40;;;1.17;;
26042;SDS011;13818;52.156;5.382;2022-12-31T05:13:14;5.70;;;1.80;;
26042;SDS011;13818;52.156;5.382;2022-12-31T05:15:42;6.25;;;2.25;;
26042;SDS011;13818;52.156;5.382;2022-12-31T05:18:08;3.67;;;1.67;;
26042;SDS011;13818;52.156;5.382;2022-12-31T05:20:34;3.33;;;1.70;;
26042;SDS011;13818;52.156;5.382;2022-12-31T05:23:01;2.70;;;1.40;;
26042;SDS011;13818;52.156;5.382;2022-12-31T05:25:27;3.33;;;1.60;;
26042;SDS011;13818;52.156;5.382;2022-12-31T05:27:54;3.42;;;1.10;;
26042;SDS011;13818;52.156;5.382;2022-12-31T05:30:20;3.75;;;1.45;;
26042;SDS011;13818;52.156;5.382;2022-12-31T05:32:48;3.05;;;1.35;;
26042;SDS011;13818;52.156;5.382;2022-12-31T05:35:15;3.55;;;1.40;;
26042;SDS011;13818;52.156;5.382;2022-12-31T05:37:42;3.53;;;1.13;;
26042;SDS011;13818;52.156;5.382;2022-12-31T05:40:09;2.88;;;1.00;;
26042;SDS011;13818;52.156;5.382;2022-12-31T05:42:36;3.03;;;1.05;;
26042;SDS011;13818;52.156;5.382;2022-12-31T05:45:03;2.25;;;1.05;;
26042;SDS011;13818;52.156;5.382;2022-12-31T05:47:30;2.05;;;1.10;;
26042;SDS011;13818;52.156;5.382;2022-12-31T05:49:58;2.47;;;1.20;;
26042;SDS011;13818;52.156;5.382;2022-12-31T05:52:25;2.13;;;1.05;;
26042;SDS011;13818;52.156;5.382;2022-12-31T05:54:51;2.90;;;1.38;;
26042;SDS011;13818;52.156;5.382;2022-12-31T05:57:18;2.55;;;1.40;;
26042;SDS011;13818;52.156;5.382;2022-12-31T05:59:44;3.17;;;1.30;;
26042;SDS011;13818;52.156;5.382;2022-12-31T06:02:10;2.72;;;1.30;;
26042;SDS011;13818;52.156;5.382;2022-12-31T06:04:37;2.25;;;1.20;;
26042;SDS011;13818;52.156;5.382;2022-12-31T06:07:05;3.08;;;1.15;;
26042;SDS011;13818;52.156;5.382;2022-12-31T06:09:31;2.55;;;1.10;;
26042;SDS011;13818;52.156;5.382;2022-12-31T06:11:57;2.33;;;1.02;;
26042;SDS011;13818;52.156;5.382;2022-12-31T06:14:24;1.83;;;0.93;;
26042;SDS011;13818;52.156;5.382;2022-12-31T06:16:50;2.13;;;1.10;;
26042;SDS011;13818;52.156;5.382;2022-12-31T06:19:17;2.20;;;1.00;;
26042;SDS011;13818;52.156;5.382;2022-12-31T06:21:43;2.10;;;1.05;;
26042;SDS011;13818;52.156;5.382;2022-12-31T06:24:11;1.80;;;0.90;;
26042;SDS011;13818;52.156;5.382;2022-12-31T06:26:38;3.78;;;0.90;;
26042;SDS011;13818;52.156;5.382;2022-12-31T06:29:04;1.75;;;0.70;;
26042;SDS011;13818;52.156;5.382;2022-12-31T06:31:31;2.72;;;1.10;;
26042;SDS011;13818;52.156;5.382;2022-12-31T06:33:57;2.60;;;1.00;;
26042;SDS011;13818;52.156;5.382;2022-12-31T06:36:24;3.40;;;1.38;;
26042;SDS011;13818;52.156;5.382;2022-12-31T06:38:51;4.45;;;1.70;;
26042;SDS011;13818;52.156;5.382;2022-12-31T06:41:19;4.80;;;2.08;;
26042;SDS011;13818;52.156;5.382;2022-12-31T06:43:46;4.75;;;2.25;;
26042;SDS011;13818;52.156;5.382;2022-12-31T06:46:14;5.75;;;2.72;;
26042;SDS011;13818;52.156;5.382;2022-12-31T06:48:42;4.88;;;2.47;;
26042;SDS011;13818;52.156;5.382;2022-12-31T06:51:10;4.80;;;2.33;;
26042;SDS011;13818;52.156;5.382;2022-12-31T06:53:38;5.13;;;2.50;;
26042;SDS011;13818;52.156;5.382;2022-12-31T06:56:05;4.32;;;2.13;;
26042;SDS011;13818;52.156;5.382;2022-12-31T06:58:34;4.53;;;2.15;;
26042;SDS011;13818;52.156;5.382;2022-12-31T07:01:03;5.18;;;2.17;;
26042;SDS011;13818;52.156;5.382;2022-12-31T07:03:39;4.72;;;1.98;;
26042;SDS011;13818;52.156;5.382;2022-12-31T07:06:10;3.85;;;1.77;;
26042;SDS011;13818;52.156;5.382;2022-12-31T07:08:42;5.18;;;2.00;;
26042;SDS011;13818;52.156;5.382;2022-12-31T07:11:17;3.50;;;1.83;;
26042;SDS011;13818;52.156;5.382;2022-12-31T07:13:55;3.53;;;1.77;;
26042;SDS011;13818;52.156;5.382;2022-12-31T07:16:33;3.22;;;1.48;;
26042;SDS011;13818;52.156;5.382;2022-12-31T07:19:11;2.83;;;1.30;;
26042;SDS011;13818;52.156;5.382;2022-12-31T07:21:45;3.58;;;1.60;;
26042;SDS011;13818;52.156;5.382;2022-12-31T07:26:46;2.33;;;0.80;;
26042;SDS011;13818;52.156;5.382;2022-12-31T07:29:27;1.45;;;0.70;;
26042;SDS011;13818;52.156;5.382;2022-12-31T07:32:03;2.20;;;0.70;;
26042;SDS011;13818;52.156;5.382;2022-12-31T07:34:41;1.65;;;0.73;;
26042;SDS011;13818;52.156;5.382;2022-12-31T07:37:18;1.50;;;0.50;;
26042;SDS011;13818;52.156;5.382;2022-12-31T07:39:54;0.50;;;0.30;;
26042;SDS011;13818;52.156;5.382;2022-12-31T07:42:30;0.90;;;0.30;;
26042;SDS011;13818;52.156;5.382;2022-12-31T07:45:08;0.80;;;0.20;;
26042;SDS011;13818;52.156;5.382;2022-12-31T07:47:41;0.30;;;0.13;;
26042;SDS011;13818;52.156;5.382;2022-12-31T07:50:11;0.38;;;0.20;;
26042;SDS011;13818;52.156;5.382;2022-12-31T07:52:39;0.35;;;0.32;;
26042;SDS011;13818;52.156;5.382;2022-12-31T07:55:06;1.15;;;0.30;;
26042;SDS011;13818;52.156;5.382;2022-12-31T07:57:35;1.17;;;0.30;;
26042;SDS011;13818;52.156;5.382;2022-12-31T08:00:11;0.88;;;0.25;;
26042;SDS011;13818;52.156;5.382;2022-12-31T08:02:58;2.83;;;0.40;;
26042;SDS011;13818;52.156;5.382;2022-12-31T08:05:31;1.15;;;0.20;;
26042;SDS011;13818;52.156;5.382;2022-12-31T08:08:07;1.33;;;0.50;;
26042;SDS011;13818;52.156;5.382;2022-12-31T08:13:17;1.50;;;0.50;;
26042;SDS011;13818;52.156;5.382;2022-12-31T08:15:45;0.98;;;0.40;;
26042;SDS011;13818;52.156;5.382;2022-12-31T08:18:12;0.95;;;0.55;;
26042;SDS011;13818;52.156;5.382;2022-12-31T08:20:47;0.93;;;0.40;;
26042;SDS011;13818;52.156;5.382;2022-12-31T08:23:31;1.25;;;0.40;;
26042;SDS011;13818;52.156;5.382;2022-12-31T08:26:09;2.55;;;0.60;;
26042;SDS011;13818;52.156;5.382;2022-12-31T08:28:51;3.00;;;0.30;;
26042;SDS011;13818;52.156;5.382;2022-12-31T08:31:26;4.90;;;0.52;;
26042;SDS011;13818;52.156;5.382;2022-12-31T08:34:04;3.90;;;0.80;;
26042;SDS011;13818;52.156;5.382;2022-12-31T08:36:40;2.17;;;0.85;;
26042;SDS011;13818;52.156;5.382;2022-12-31T08:39:16;1.58;;;0.50;;
26042;SDS011;13818;52.156;5.382;2022-12-31T08:41:50;2.25;;;0.50;;
26042;SDS011;13818;52.156;5.382;2022-12-31T08:46:53;0.88;;;0.32;;
26042;SDS011;13818;52.156;5.382;2022-12-31T08:49:31;0.90;;;0.47;;
26042;SDS011;13818;52.156;5.382;2022-12-31T08:52:00;1.17;;;0.50;;
26042;SDS011;13818;52.156;5.382;2022-12-31T08:54:28;2.13;;;0.90;;
26042;SDS011;13818;52.156;5.382;2022-12-31T08:56:56;1.00;;;0.30;;
26042;SDS011;13818;52.156;5.382;2022-12-31T08:59:29;2.70;;;0.55;;
26042;SDS011;13818;52.156;5.382;2022-12-31T09:05:13;2.42;;;0.60;;
26042;SDS011;13818;52.156;5.382;2022-12-31T09:07:45;4.57;;;0.80;;
26042;SDS011;13818;52.156;5.382;2022-12-31T09:10:22;1.20;;;0.57;;
26042;SDS011;13818;52.156;5.382;2022-12-31T09:12:56;2.67;;;0.80;;
26042;SDS011;13818;52.156;5.382;2022-12-31T09:15:35;2.58;;;0.73;;
26042;SDS011;13818;52.156;5.382;2022-12-31T09:18:07;1.48;;;0.63;;
26042;SDS011;13818;52.156;5.382;2022-12-31T09:20:37;3.17;;;0.82;;
26042;SDS011;13818;52.156;5.382;2022-12-31T09:23:04;3.53;;;0.80;;
26042;SDS011;13818;52.156;5.382;2022-12-31T09:25:31;4.20;;;0.80;;
26042;SDS011;13818;52.156;5.382;2022-12-31T09:28:02;4.25;;;1.13;;
26042;SDS011;13818;52.156;5.382;2022-12-31T09:30:39;4.88;;;0.95;;
26042;SDS011;13818;52.156;5.382;2022-12-31T09:33:14;2.70;;;0.88;;
26042;SDS011;13818;52.156;5.382;2022-12-31T09:35:50;4.40;;;0.60;;
26042;SDS011;13818;52.156;5.382;2022-12-31T09:38:20;1.42;;;0.60;;
26042;SDS011;13818;52.156;5.382;2022-12-31T09:40:53;3.50;;;0.63;;
26042;SDS011;13818;52.156;5.382;2022-12-31T09:52:37;2.25;;;0.90;;
26042;SDS011;13818;52.156;5.382;2022-12-31T09:55:20;3.45;;;0.60;;
26042;SDS011;13818;52.156;5.382;2022-12-31T09:57:57;5.20;;;1.02;;
26042;SDS011;13818;52.156;5.382;2022-12-31T10:00:34;3.65;;;1.15;;
26042;SDS011;13818;52.156;5.382;2022-12-31T10:03:20;3.70;;;0.80;;
26042;SDS011;13818;52.156;5.382;2022-12-31T10:06:05;7.97;;;1.23;;
26042;SDS011;13818;52.156;5.382;2022-12-31T10:08:46;2.90;;;0.88;;
26042;SDS011;13818;52.156;5.382;2022-12-31T10:11:26;5.72;;;1.20;;
26042;SDS011;13818;52.156;5.382;2022-12-31T10:14:01;5.63;;;1.17;;
26042;SDS011;13818;52.156;5.382;2022-12-31T10:17:06;6.72;;;1.52;;
26042;SDS011;13818;52.156;5.382;2022-12-31T10:19:46;4.53;;;1.10;;
26042;SDS011;13818;52.156;5.382;2022-12-31T10:22:42;2.92;;;0.88;;
26042;SDS011;13818;52.156;5.382;2022-12-31T10:25:22;2.80;;;0.82;;
26042;SDS011;13818;52.156;5.382;2022-12-31T10:28:05;2.42;;;0.77;;
26042;SDS011;13818;52.156;5.382;2022-12-31T10:30:43;2.88;;;1.10;;
26042;SDS011;13818;52.156;5.382;2022-12-31T10:33:20;4.80;;;1.10;;
26042;SDS011;13818;52.156;5.382;2022-12-31T10:36:00;7.32;;;1.45;;
26042;SDS011;13818;52.156;5.382;2022-12-31T10:38:37;4.68;;;1.17;;
26042;SDS011;13818;52.156;5.382;2022-12-31T10:41:25;4.80;;;1.20;;
26042;SDS011;13818;52.156;5.382;2022-12-31T10:50:48;4.05;;;1.10;;
26042;SDS011;13818;52.156;5.382;2022-12-31T10:56:40;2.60;;;0.75;;
26042;SDS011;13818;52.156;5.382;2022-12-31T11:05:43;3.47;;;1.20;;
26042;SDS011;13818;52.156;5.382;2022-12-31T11:08:35;6.45;;;1.42;;
26042;SDS011;13818;52.156;5.382;2022-12-31T11:11:25;4.13;;;1.10;;
26042;SDS011;13818;52.156;5.382;2022-12-31T11:14:08;4.07;;;0.98;;
26042;SDS011;13818;52.156;5.382;2022-12-31T11:16:55;3.72;;;1.10;;
26042;SDS011;13818;52.156;5.382;2022-12-31T11:19:33;8.15;;;1.30;;
26042;SDS011;13818;52.156;5.382;2022-12-31T11:22:16;8.82;;;1.13;;
26042;SDS011;13818;52.156;5.382;2022-12-31T11:25:01;8.52;;;1.90;;
26042;SDS011;13818;52.156;5.382;2022-12-31T11:27:46;5.90;;;1.80;;
26042;SDS011;13818;52.156;5.382;2022-12-31T11:30:31;7.75;;;2.03;;
26042;SDS011;13818;52.156;5.382;2022-12-31T11:33:09;5.32;;;1.40;;
26042;SDS011;13818;52.156;5.382;2022-12-31T11:35:53;7.30;;;1.40;;
26042;SDS011;13818;52.156;5.382;2022-12-31T11:38:30;5.47;;;1.05;;
26042;SDS011;13818;52.156;5.382;2022-12-31T11:41:02;2.80;;;1.40;;
26042;SDS011;13818;52.156;5.382;2022-12-31T11:43:33;4.80;;;1.60;;
26042;SDS011;13818;52.156;5.382;2022-12-31T11:46:12;3.95;;;1.52;;
26042;SDS011;13818;52.156;5.382;2022-12-31T11:48:50;5.70;;;2.20;;
26042;SDS011;13818;52.156;5.382;2022-12-31T11:51:32;3.50;;;1.67;;
26042;SDS011;13818;52.156;5.382;2022-12-31T11:54:18;8.52;;;2.10;;
26042;SDS011;13818;52.156;5.382;2022-12-31T11:57:07;4.68;;;1.67;;
26042;SDS011;13818;52.156;5.382;2022-12-31T11:59:41;8.07;;;2.58;;
26042;SDS011;13818;52.156;5.382;2022-12-31T12:02:16;8.13;;;2.08;;
26042;SDS011;13818;52.156;5.382;2022-12-31T12:04:48;4.35;;;1.40;;
26042;SDS011;13818;52.156;5.382;2022-12-31T12:07:15;6.80;;;2.00;;
26042;SDS011;13818;52.156;5.382;2022-12-31T12:09:43;7.57;;;1.70;;
26042;SDS011;13818;52.156;5.382;2022-12-31T12:12:11;6.10;;;1.63;;
26042;SDS011;13818;52.156;5.382;2022-12-31T12:14:40;6.00;;;1.30;;
26042;SDS011;13818;52.156;5.382;2022-12-31T12:17:08;6.40;;;1.38;;
26042;SDS011;13818;52.156;5.382;2022-12-31T12:19:41;8.40;;;1.75;;
26042;SDS011;13818;52.156;5.382;2022-12-31T12:22:10;2.90;;;1.05;;
26042;SDS011;13818;52.156;5.382;2022-12-31T12:24:38;2.67;;;0.90;;
26042;SDS011;13818;52.156;5.382;2022-12-31T12:27:17;3.65;;;0.95;;
26042;SDS011;13818;52.156;5.382;2022-12-31T12:29:46;8.45;;;1.30;;
26042;SDS011;13818;52.156;5.382;2022-12-31T12:32:14;4.70;;;1.25;;
26042;SDS011;13818;52.156;5.382;2022-12-31T12:37:17;6.57;;;1.08;;
26042;SDS011;13818;52.156;5.382;2022-12-31T12:39:54;5.75;;;1.40;;
26042;SDS011;13818;52.156;5.382;2022-12-31T12:42:21;10.80;;;1.40;;
26042;SDS011;13818;52.156;5.382;2022-12-31T12:44:48;6.63;;;0.90;;
26042;SDS011;13818;52.156;5.382;2022-12-31T12:47:25;6.90;;;1.95;;
26042;SDS011;13818;52.156;5.382;2022-12-31T12:49:54;3.83;;;1.10;;
26042;SDS011;13818;52.156;5.382;2022-12-31T12:52:25;4.05;;;1.30;;
26042;SDS011;13818;52.156;5.382;2022-12-31T12:55:05;9.07;;;1.33;;
26042;SDS011;13818;52.156;5.382;2022-12-31T12:57:42;9.18;;;1.10;;
26042;SDS011;13818;52.156;5.382;2022-12-31T13:00:15;4.35;;;1.48;;
26042;SDS011;13818;52.156;5.382;2022-12-31T13:02:53;4.53;;;1.20;;
26042;SDS011;13818;52.156;5.382;2022-12-31T13:05:43;5.72;;;1.20;;
26042;SDS011;13818;52.156;5.382;2022-12-31T13:08:25;5.50;;;1.58;;
26042;SDS011;13818;52.156;5.382;2022-12-31T13:11:07;7.65;;;1.20;;
26042;SDS011;13818;52.156;5.382;2022-12-31T13:13:48;6.95;;;1.30;;
26042;SDS011;13818;52.156;5.382;2022-12-31T13:16:23;5.30;;;1.40;;
26042;SDS011;13818;52.156;5.382;2022-12-31T13:18:59;3.78;;;1.02;;
26042;SDS011;13818;52.156;5.382;2022-12-31T13:21:36;7.38;;;1.48;;
26042;SDS011;13818;52.156;5.382;2022-12-31T13:24:12;5.57;;;1.10;;
26042;SDS011;13818;52.156;5.382;2022-12-31T13:26:47;8.10;;;1.38;;
26042;SDS011;13818;52.156;5.382;2022-12-31T13:29:21;5.45;;;1.10;;
26042;SDS011;13818;52.156;5.382;2022-12-31T13:31:51;6.57;;;1.20;;
26042;SDS011;13818;52.156;5.382;2022-12-31T13:34:21;5.32;;;1.35;;
26042;SDS011;13818;52.156;5.382;2022-12-31T13:36:53;7.03;;;1.55;;
26042;SDS011;13818;52.156;5.382;2022-12-31T13:39:24;3.45;;;1.40;;
26042;SDS011;13818;52.156;5.382;2022-12-31T13:41:54;8.30;;;1.42;;
26042;SDS011;13818;52.156;5.382;2022-12-31T13:44:26;4.97;;;1.27;;
26042;SDS011;13818;52.156;5.382;2022-12-31T13:46:57;4.90;;;1.08;;
26042;SDS011;13818;52.156;5.382;2022-12-31T13:49:30;6.35;;;1.77;;
26042;SDS011;13818;52.156;5.382;2022-12-31T13:52:00;5.72;;;1.35;;
26042;SDS011;13818;52.156;5.382;2022-12-31T13:54:37;7.57;;;2.17;;
26042;SDS011;13818;52.156;5.382;2022-12-31T13:57:10;2.45;;;1.08;;
26042;SDS011;13818;52.156;5.382;2022-12-31T13:59:44;2.42;;;1.40;;
26042;SDS011;13818;52.156;5.382;2022-12-31T14:02:23;7.82;;;1.92;;
26042;SDS011;13818;52.156;5.382;2022-12-31T14:04:58;2.65;;;1.42;;
26042;SDS011;13818;52.156;5.382;2022-12-31T14:07:33;5.18;;;1.30;;
26042;SDS011;13818;52.156;5.382;2022-12-31T14:10:08;6.75;;;1.10;;
26042;SDS011;13818;52.156;5.382;2022-12-31T14:12:39;4.38;;;1.42;;
26042;SDS011;13818;52.156;5.382;2022-12-31T14:15:21;6.90;;;1.13;;
26042;SDS011;13818;52.156;5.382;2022-12-31T14:17:55;3.70;;;1.00;;
26042;SDS011;13818;52.156;5.382;2022-12-31T14:20:30;11.30;;;1.83;;
26042;SDS011;13818;52.156;5.382;2022-12-31T14:23:10;6.82;;;1.45;;
26042;SDS011;13818;52.156;5.382;2022-12-31T14:25:46;5.75;;;1.55;;
26042;SDS011;13818;52.156;5.382;2022-12-31T14:28:17;7.80;;;1.95;;
26042;SDS011;13818;52.156;5.382;2022-12-31T14:30:49;5.05;;;1.50;;
26042;SDS011;13818;52.156;5.382;2022-12-31T14:33:30;7.55;;;1.63;;
26042;SDS011;13818;52.156;5.382;2022-12-31T14:36:09;7.75;;;1.48;;
26042;SDS011;13818;52.156;5.382;2022-12-31T14:38:52;5.40;;;1.42;;
26042;SDS011;13818;52.156;5.382;2022-12-31T14:41:32;5.50;;;1.40;;
26042;SDS011;13818;52.156;5.382;2022-12-31T14:44:15;9.20;;;1.20;;
26042;SDS011;13818;52.156;5.382;2022-12-31T14:46:55;6.70;;;1.42;;
26042;SDS011;13818;52.156;5.382;2022-12-31T14:49:34;5.10;;;1.40;;
26042;SDS011;13818;52.156;5.382;2022-12-31T14:52:07;7.55;;;1.52;;
26042;SDS011;13818;52.156;5.382;2022-12-31T14:54:45;3.70;;;1.25;;
26042;SDS011;13818;52.156;5.382;2022-12-31T14:57:24;3.15;;;1.27;;
26042;SDS011;13818;52.156;5.382;2022-12-31T14:59:58;4.45;;;1.98;;
26042;SDS011;13818;52.156;5.382;2022-12-31T15:02:27;6.07;;;1.50;;
26042;SDS011;13818;52.156;5.382;2022-12-31T15:05:13;7.38;;;2.17;;
26042;SDS011;13818;52.156;5.382;2022-12-31T15:07:45;8.93;;;1.45;;
26042;SDS011;13818;52.156;5.382;2022-12-31T15:10:24;7.70;;;1.75;;
26042;SDS011;13818;52.156;5.382;2022-12-31T15:13:03;4.53;;;1.33;;
26042;SDS011;13818;52.156;5.382;2022-12-31T15:15:50;8.40;;;1.75;;
26042;SDS011;13818;52.156;5.382;2022-12-31T15:18:34;5.63;;;1.48;;
26042;SDS011;13818;52.156;5.382;2022-12-31T15:21:13;4.43;;;1.88;;
26042;SDS011;13818;52.156;5.382;2022-12-31T15:23:52;6.57;;;1.80;;
26042;SDS011;13818;52.156;5.382;2022-12-31T15:26:21;8.20;;;1.40;;
26042;SDS011;13818;52.156;5.382;2022-12-31T15:28:55;14.23;;;2.17;;
26042;SDS011;13818;52.156;5.382;2022-12-31T15:31:24;9.07;;;2.10;;
26042;SDS011;13818;52.156;5.382;2022-12-31T15:33:53;11.15;;;2.25;;
26042;SDS011;13818;52.156;5.382;2022-12-31T15:36:22;7.80;;;2.05;;
26042;SDS011;13818;52.156;5.382;2022-12-31T15:38:51;7.03;;;1.88;;
26042;SDS011;13818;52.156;5.382;2022-12-31T15:41:36;8.43;;;2.38;;
26042;SDS011;13818;52.156;5.382;2022-12-31T15:44:06;6.57;;;2.30;;
26042;SDS011;13818;52.156;5.382;2022-12-31T15:46:39;8.48;;;2.63;;
26042;SDS011;13818;52.156;5.382;2022-12-31T15:49:08;10.23;;;1.90;;
26042;SDS011;13818;52.156;5.382;2022-12-31T15:51:42;12.40;;;3.80;;
26042;SDS011;13818;52.156;5.382;2022-12-31T15:54:15;8.57;;;2.20;;
26042;SDS011;13818;52.156;5.382;2022-12-31T15:56:49;9.80;;;2.35;;
26042;SDS011;13818;52.156;5.382;2022-12-31T15:59:17;9.23;;;2.30;;
26042;SDS011;13818;52.156;5.382;2022-12-31T16:01:46;12.10;;;2.53;;
26042;SDS011;13818;52.156;5.382;2022-12-31T16:04:14;9.77;;;2.10;;